Time;durP1;ratioP1;P1;durP2;ratioP2;P2;SDS_P1;SDS_P2;PMS_P1;PMS_P2;Temp;Humidity;BMP_temperature;BMP_pressure;BME280_temperature;BME280_humidity;BME280_pressure;Samples;Min_cycle;Max_cycle;Signal;HPM_P1;HPM_P2
2022/08/11 00:00:42;;;;;;;2.63;1.73;;;;;;;17.78;95.90;102501.06;5074821;28;20674;-70
2022/08/11 00:03:10;;;;;;;0.90;0.70;;;;;;;17.73;95.24;102488.19;5069556;28;20534;-70
2022/08/11 00:05:55;;;;;;;1.77;1.20;;;;;;;17.73;95.39;102493.53;5070873;28;20024;-70
2022/08/11 00:08:26;;;;;;;2.08;0.82;;;;;;;17.71;95.12;102492.00;5069125;28;20024;-70
2022/08/11 00:11:01;;;;;;;1.88;0.93;;;;;;;17.60;95.77;102483.25;5071363;28;20326;-70
2022/08/11 00:13:37;;;;;;;3.13;1.15;;;;;;;17.67;95.42;102486.97;5077422;28;20028;-70
2022/08/11 00:16:12;;;;;;;3.33;2.85;;;;;;;17.60;96.12;102479.75;5068952;28;20107;-70
2022/08/11 00:18:40;;;;;;;1.42;0.95;;;;;;;17.57;96.79;102480.91;5073453;28;20111;-70
2022/08/11 00:21:06;;;;;;;2.90;1.45;;;;;;;17.58;96.76;102492.41;5080007;28;20024;-70
2022/08/11 00:23:32;;;;;;;2.20;1.10;;;;;;;17.58;96.60;102484.41;5072667;28;20465;-70
2022/08/11 00:25:59;;;;;;;1.30;1.05;;;;;;;17.55;96.20;102480.22;5071308;28;20028;-70
2022/08/11 00:28:29;;;;;;;1.63;1.20;;;;;;;17.54;96.79;102488.38;5077941;28;20085;-70
2022/08/11 00:31:01;;;;;;;2.05;1.38;;;;;;;17.53;94.74;102484.88;5074764;28;20454;-70
2022/08/11 00:33:48;;;;;;;2.75;1.20;;;;;;;17.51;95.75;102486.88;5080165;28;20016;-70
2022/08/11 00:36:15;;;;;;;1.77;1.52;;;;;;;17.47;96.76;102480.16;5074658;28;20086;-70
2022/08/11 00:38:44;;;;;;;1.92;1.13;;;;;;;17.45;96.53;102487.47;5070759;28;20032;-70
2022/08/11 00:41:28;;;;;;;1.73;1.02;;;;;;;17.46;97.89;102483.81;5079976;28;20112;-70
2022/08/11 00:44:25;;;;;;;2.90;1.48;;;;;;;17.44;98.84;102485.78;5079222;28;20056;-70
2022/08/11 00:47:09;;;;;;;3.03;1.15;;;;;;;17.40;100.00;102482.59;5028060;28;20499;-70
2022/08/11 00:49:46;;;;;;;3.53;1.40;;;;;;;17.36;100.00;102486.59;5047444;28;20119;-70
2022/08/11 00:52:47;;;;;;;1.60;1.13;;;;;;;17.30;100.00;102481.84;5047060;28;20253;-70
2022/08/11 00:55:50;;;;;;;2.92;1.63;;;;;;;17.32;100.00;102487.03;5047388;28;20029;-70
2022/08/11 00:59:00;;;;;;;1.48;1.08;;;;;;;17.28;100.00;102492.66;5027023;28;20181;-70
2022/08/11 01:01:37;;;;;;;3.15;1.40;;;;;;;17.28;100.00;102482.00;5047817;28;20297;-70
2022/08/11 01:04:08;;;;;;;1.38;0.90;;;;;;;17.23;99.79;102486.13;5047411;28;20084;-70
2022/08/11 01:06:51;;;;;;;1.60;1.13;;;;;;;17.16;100.00;102472.56;5027416;28;20116;-70
2022/08/11 01:09:41;;;;;;;1.92;1.30;;;;;;;17.19;99.74;102482.94;5046405;28;20041;-70
2022/08/11 01:12:24;;;;;;;1.70;1.35;;;;;;;17.20;100.00;102491.75;5046440;28;20032;-70
2022/08/11 01:14:49;;;;;;;3.92;1.30;;;;;;;17.19;100.00;102493.59;5046973;28;20121;-70
2022/08/11 01:17:52;;;;;;;1.83;1.02;;;;;;;17.17;100.00;102479.56;5046928;28;20033;-70
2022/08/11 01:20:36;;;;;;;2.28;1.48;;;;;;;17.12;99.96;102486.38;5020801;28;20025;-70
2022/08/11 01:23:01;;;;;;;3.78;1.10;;;;;;;17.13;100.00;102486.22;5068765;28;20047;-70
2022/08/11 01:25:51;;;;;;;2.20;1.40;;;;;;;17.11;100.00;102482.84;5078288;28;20370;-70
2022/08/11 01:28:54;;;;;;;2.70;1.70;;;;;;;17.11;100.00;102482.84;5079059;28;20081;-70
2022/08/11 01:31:48;;;;;;;3.80;1.30;;;;;;;17.07;100.00;102484.16;5078573;28;20540;-70
2022/08/11 01:34:26;;;;;;;4.50;1.85;;;;;;;17.08;100.00;102483.19;5073850;28;20561;-70
2022/08/11 01:36:55;;;;;;;2.22;1.42;;;;;;;17.06;100.00;102480.66;5071051;28;20311;-70
2022/08/11 01:39:46;;;;;;;2.65;1.42;;;;;;;17.06;100.00;102482.47;5084292;28;20032;-70
2022/08/11 01:45:47;;;;;;;3.05;1.35;;;;;;;16.96;100.00;102466.56;5075672;28;20105;-70
2022/08/11 01:48:27;;;;;;;1.88;1.50;;;;;;;17.02;100.00;102475.78;5069557;28;20522;-70
2022/08/11 01:51:04;;;;;;;2.42;1.40;;;;;;;17.01;100.00;102469.63;5069277;28;20594;-70
2022/08/11 01:53:32;;;;;;;5.40;1.67;;;;;;;17.02;100.00;102475.78;5073332;28;20078;-70
2022/08/11 01:56:32;;;;;;;2.58;2.08;;;;;;;16.93;100.00;102458.03;5081783;28;20028;-70
2022/08/11 01:59:03;;;;;;;2.10;1.42;;;;;;;17.01;100.00;102471.44;5076126;28;20035;-71
2022/08/11 02:01:57;;;;;;;4.65;1.63;;;;;;;17.01;100.00;102474.13;5076581;28;20555;-71
2022/08/11 02:05:06;;;;;;;6.45;2.33;;;;;;;16.96;100.00;102482.56;5073644;28;20035;-70
2022/08/11 02:07:35;;;;;;;2.88;1.50;;;;;;;16.93;100.00;102479.38;5065770;28;20036;-70
2022/08/11 02:13:16;;;;;;;6.07;1.90;;;;;;;16.89;100.00;102475.31;5075104;28;20023;-70
2022/08/11 02:15:49;;;;;;;2.72;1.52;;;;;;;16.82;100.00;102470.59;5077428;28;20240;-70
2022/08/11 02:23:38;;;;;;;3.33;1.23;;;;;;;16.80;100.00;102472.56;5079831;28;20119;-70
2022/08/11 02:24:15;;;;;;;3.78;2.00;;;;;;;16.84;100.00;102471.28;5079715;28;20062;-70
2022/08/11 02:26:45;;;;;;;3.80;2.13;;;;;;;16.79;100.00;102476.22;5069545;28;20028;-70
2022/08/11 02:29:28;;;;;;;5.13;3.50;;;;;;;16.77;100.00;102472.84;5084674;28;20175;-70
2022/08/11 02:35:17;;;;;;;3.88;2.78;;;;;;;16.68;100.00;102471.09;5078307;28;20540;-70
2022/08/11 02:38:05;;;;;;;4.05;2.00;;;;;;;16.65;100.00;102468.72;5057063;28;20021;-70
2022/08/11 02:40:43;;;;;;;5.30;1.65;;;;;;;16.64;100.00;102461.72;5082495;28;20032;-70
2022/08/11 02:43:27;;;;;;;3.55;2.10;;;;;;;16.57;100.00;102444.63;5069919;28;20024;-70
2022/08/11 02:46:41;;;;;;;3.28;2.17;;;;;;;16.58;100.00;102446.31;5079166;28;20029;-70
2022/08/11 02:52:33;;;;;;;5.65;2.40;;;;;;;16.58;100.00;102443.66;5025827;28;20556;-70
2022/08/11 02:55:13;;;;;;;5.85;2.42;;;;;;;16.69;100.00;102454.09;5025128;28;20040;-70
2022/08/11 02:58:04;;;;;;;3.40;2.25;;;;;;;16.61;100.00;102446.00;5027695;28;20395;-70
2022/08/11 03:00:44;;;;;;;7.10;3.22;;;;;;;16.59;100.00;102445.31;5011239;28;20083;-70
2022/08/11 03:03:21;;;;;;;4.90;2.85;;;;;;;16.72;100.00;102459.13;5023832;28;20087;-70
2022/08/11 03:06:11;;;;;;;5.78;2.85;;;;;;;16.71;100.00;102454.78;5006722;28;20056;-70
2022/08/11 03:09:23;;;;;;;4.03;2.53;;;;;;;16.70;100.00;102454.94;5025050;28;20056;-70
2022/08/11 03:17:34;;;;;;;7.68;3.92;;;;;;;16.60;100.00;102444.34;4946939;28;20046;-70
2022/08/11 03:20:27;;;;;;;3.35;2.33;;;;;;;16.63;100.00;102455.53;4949591;28;20368;-70
2022/08/11 03:23:07;;;;;;;5.10;3.22;;;;;;;16.52;100.00;102433.59;4971752;28;20045;-70
2022/08/11 03:25:48;;;;;;;4.30;2.13;;;;;;;16.55;100.00;102442.13;5008613;28;20836;-70
2022/08/11 03:28:29;;;;;;;4.18;2.40;;;;;;;16.52;100.00;102444.25;5011528;28;20029;-70
2022/08/11 03:31:28;;;;;;;4.60;2.55;;;;;;;16.47;99.89;102444.72;5008887;28;20069;-70
2022/08/11 03:34:01;;;;;;;3.42;1.88;;;;;;;16.42;96.87;102450.50;5013145;28;20433;-70
2022/08/11 03:36:57;;;;;;;2.90;1.90;;;;;;;16.41;95.38;102446.13;5008369;28;20065;-70
2022/08/11 03:39:54;;;;;;;3.65;1.85;;;;;;;16.28;92.96;102426.16;5007909;28;20026;-70
2022/08/11 03:42:41;;;;;;;2.80;1.83;;;;;;;16.34;92.91;102437.06;5040349;28;20377;-70
2022/08/11 03:45:32;;;;;;;3.15;1.63;;;;;;;16.28;93.51;102434.16;5069733;28;20063;-70
2022/08/11 03:48:18;;;;;;;3.30;1.80;;;;;;;16.25;94.00;102436.13;5070909;28;20031;-70
2022/08/11 03:51:30;;;;;;;3.17;1.70;;;;;;;16.22;95.47;102435.59;5075823;28;20035;-70
2022/08/11 03:54:15;;;;;;;5.65;1.80;;;;;;;16.18;97.75;102434.22;5060268;28;20075;-70
2022/08/11 03:57:17;;;;;;;4.18;2.17;;;;;;;16.24;100.00;102438.94;5070788;28;20049;-70
2022/08/11 04:00:10;;;;;;;3.20;2.08;;;;;;;16.29;100.00;102443.81;5078748;28;20062;-70
2022/08/11 04:03:00;;;;;;;3.45;2.20;;;;;;;16.34;100.00;102439.72;5067283;28;20099;-70
2022/08/11 04:05:57;;;;;;;3.70;2.72;;;;;;;16.33;100.00;102447.88;5076790;28;20392;-70
2022/08/11 04:09:00;;;;;;;3.60;3.03;;;;;;;16.29;100.00;102447.34;5090288;28;20115;-70
2022/08/11 04:11:41;;;;;;;5.00;3.28;;;;;;;16.30;100.00;102451.66;5069778;28;20038;-70
2022/08/11 04:17:46;;;;;;;4.38;2.17;;;;;;;16.24;100.00;102438.94;5079295;28;20039;-70
2022/08/11 04:20:27;;;;;;;5.05;2.88;;;;;;;16.16;100.00;102429.03;5076548;28;20028;-70
2022/08/11 04:23:02;;;;;;;3.92;2.22;;;;;;;16.25;100.00;102445.97;5077922;28;20036;-70
2022/08/11 04:25:43;;;;;;;6.22;2.78;;;;;;;16.30;100.00;102440.19;5066087;28;20034;-70
2022/08/11 04:28:45;;;;;;;3.80;3.38;;;;;;;16.29;100.00;102449.16;5076915;28;20472;-71
2022/08/11 04:31:33;;;;;;;6.03;3.40;;;;;;;16.26;100.00;102450.28;5074118;28;20087;-69
2022/08/11 04:34:13;;;;;;;5.22;3.33;;;;;;;16.21;100.00;102439.25;5034279;28;20385;-69
2022/08/11 04:39:53;;;;;;;9.70;3.95;;;;;;;16.19;100.00;102451.88;5079477;28;20035;-70
2022/08/11 04:45:36;;;;;;;6.45;3.55;;;;;;;16.17;100.00;102443.19;5070468;28;20035;-69
2022/08/11 05:04:02;;;;;;;10.55;3.58;;;;;;;16.20;100.00;102453.53;5071736;28;20036;-70
2022/08/11 05:06:56;;;;;;;5.20;3.60;;;;;;;16.22;100.00;102454.22;5081595;28;20110;-70
2022/08/11 05:09:40;;;;;;;4.68;2.63;;;;;;;16.25;100.00;102448.63;5075997;28;20036;-70
2022/08/11 05:12:21;;;;;;;7.70;4.13;;;;;;;16.32;100.00;102444.38;5077027;28;20110;-70
2022/08/11 05:34:54;;;;;;;6.43;3.75;;;;;;;16.85;100.00;102454.31;5082462;28;20039;-69
2022/08/11 05:37:28;;;;;;;6.25;3.50;;;;;;;16.92;100.00;102453.66;5075651;28;20575;-69
2022/08/11 05:56:46;;;;;;;8.63;4.13;;;;;;;17.52;100.00;102443.16;5080110;28;20054;-70
2022/08/11 05:59:14;;;;;;;3.78;2.75;;;;;;;17.65;100.00;102456.06;5069416;28;20498;-70
2022/08/11 06:01:41;;;;;;;5.03;3.78;;;;;;;17.76;100.00;102458.47;5068464;28;20488;-70
2022/08/11 06:04:14;;;;;;;6.57;3.35;;;;;;;17.87;100.00;102449.38;5072939;28;20012;-70
2022/08/11 06:06:51;;;;;;;5.03;3.58;;;;;;;17.95;100.00;102456.63;5068382;28;20028;-70
2022/08/11 06:09:32;;;;;;;4.13;2.75;;;;;;;17.95;100.00;102441.41;5077113;28;20028;-71
2022/08/11 06:12:04;;;;;;;8.48;4.07;;;;;;;18.17;100.00;102458.72;5075066;28;20414;-70
2022/08/11 06:14:31;;;;;;;6.22;3.55;;;;;;;18.25;100.00;102453.41;5074837;28;20035;-70
2022/08/11 06:16:59;;;;;;;5.10;3.15;;;;;;;18.38;100.00;102460.97;5072643;28;20017;-70
2022/08/11 06:19:32;;;;;;;6.07;3.28;;;;;;;18.48;100.00;102455.47;5074142;28;20480;-70
2022/08/11 06:21:59;;;;;;;5.60;3.25;;;;;;;18.66;100.00;102455.34;5071371;28;20540;-70
2022/08/11 06:24:27;;;;;;;4.70;3.10;;;;;;;18.86;100.00;102455.94;5054799;28;20029;-70
2022/08/11 06:26:54;;;;;;;5.47;3.40;;;;;;;18.94;100.00;102441.69;5075435;28;20033;-70
2022/08/11 06:29:21;;;;;;;3.25;2.47;;;;;;;19.08;100.00;102446.41;5072326;28;20062;-70
2022/08/11 06:31:58;;;;;;;4.55;2.67;;;;;;;19.30;99.21;102448.38;5075196;28;20029;-70
2022/08/11 06:34:45;;;;;;;7.40;2.58;;;;;;;19.59;98.13;102452.34;5073003;28;20047;-71
2022/08/11 06:37:48;;;;;;;3.85;2.22;;;;;;;19.81;96.23;102456.19;5076280;28;20391;-70
2022/08/11 06:40:26;;;;;;;4.50;2.83;;;;;;;20.05;94.72;102447.22;5068621;28;20029;-71
2022/08/11 06:43:10;;;;;;;3.40;2.63;;;;;;;20.26;93.98;102443.13;5070916;28;20035;-70
2022/08/11 06:45:56;;;;;;;3.17;1.92;;;;;;;20.30;92.09;102444.44;5072360;28;20073;-70
2022/08/11 06:48:23;;;;;;;3.72;2.35;;;;;;;20.38;90.57;102441.69;5069259;28;20058;-70
2022/08/11 06:51:13;;;;;;;5.28;2.95;;;;;;;20.61;90.13;102446.31;5073551;28;20054;-70
2022/08/11 06:53:45;;;;;;;5.03;2.00;;;;;;;21.09;90.15;102444.25;5073694;28;20113;-71
2022/08/11 07:02:11;;;;;;;2.90;1.50;;;;;;;23.69;81.49;102445.41;5074576;28;20036;-71
2022/08/11 07:05:00;;;;;;;3.08;1.92;;;;;;;24.22;73.51;102442.97;5068802;28;20017;-71
2022/08/11 07:16:25;;;;;;;2.65;1.45;;;;;;;26.04;67.05;102451.75;5071050;28;20259;-71
2022/08/11 07:30:06;;;;;;;2.80;1.05;;;;;;;28.59;58.48;102443.78;5074005;28;20052;-71
2022/08/11 07:32:46;;;;;;;3.72;1.15;;;;;;;29.47;56.49;102457.56;5073749;28;20032;-71
2022/08/11 07:35:19;;;;;;;2.17;1.10;;;;;;;30.20;54.25;102447.94;5066442;28;20021;-71
2022/08/11 07:37:49;;;;;;;2.15;0.98;;;;;;;30.89;52.36;102452.47;5074935;28;20020;-71
2022/08/11 07:40:21;;;;;;;1.20;0.80;;;;;;;31.61;51.06;102454.34;5073005;28;20044;-71
2022/08/11 07:42:48;;;;;;;5.82;1.13;;;;;;;32.09;50.92;102457.41;5071023;28;20416;-71
2022/08/11 07:53:36;;;;;;;1.30;0.93;;;;;;;31.86;46.58;102455.72;5000093;28;20053;-71
2022/08/11 07:56:05;;;;;;;1.58;0.98;;;;;;;31.29;49.17;102446.81;5009395;28;20486;-71
2022/08/11 08:18:00;;;;;;;3.20;0.90;;;;;;;34.18;41.29;102430.66;4994353;28;20061;-71
2022/08/11 08:20:30;;;;;;;2.40;0.73;;;;;;;34.88;41.77;102446.59;5014434;28;20033;-71
2022/08/11 08:22:59;;;;;;;1.23;0.77;;;;;;;36.14;40.35;102442.88;5011246;28;20030;-71
2022/08/11 08:25:26;;;;;;;1.52;0.70;;;;;;;35.91;38.85;102435.28;5014024;28;20057;-71
2022/08/11 08:27:55;;;;;;;2.25;0.75;;;;;;;35.78;38.78;102434.00;5035708;28;20508;-71
2022/08/11 08:33:05;;;;;;;2.70;0.80;;;;;;;34.81;40.09;102422.19;5069563;28;20124;-71
2022/08/11 08:35:34;;;;;;;1.77;0.90;;;;;;;34.47;39.36;102423.81;5074905;28;20027;-71
2022/08/11 08:38:00;;;;;;;1.55;1.10;;;;;;;35.08;38.65;102428.44;5074442;28;20380;-71
2022/08/11 08:40:26;;;;;;;1.48;0.75;;;;;;;34.65;40.98;102419.72;5077046;28;20031;-71
2022/08/11 08:42:55;;;;;;;0.80;0.50;;;;;;;37.06;37.20;102427.50;5075536;28;20078;-71
2022/08/11 08:45:22;;;;;;;1.48;0.65;;;;;;;37.24;37.46;102425.97;5074141;28;20028;-71
2022/08/11 08:47:56;;;;;;;1.98;0.70;;;;;;;38.21;36.72;102432.94;5074346;28;20078;-71
2022/08/11 08:51:33;;;;;;;2.50;0.80;;;;;;;39.03;35.80;102420.50;5077545;28;20051;-71
2022/08/11 08:53:11;;;;;;;1.90;0.57;;;;;;;39.27;35.28;102425.00;5076486;28;20036;-71
2022/08/11 08:55:39;;;;;;;1.17;0.52;;;;;;;40.43;34.14;102438.44;5076779;28;20111;-71
2022/08/11 08:58:06;;;;;;;1.42;0.70;;;;;;;41.15;33.13;102425.47;5073341;28;20606;-71
2022/08/11 09:00:43;;;;;;;2.05;0.70;;;;;;;39.24;33.38;102429.22;5071844;28;20032;-71
2022/08/11 09:03:09;;;;;;;1.65;0.55;;;;;;;39.42;33.86;102427.47;5071818;28;20040;-71
2022/08/11 09:05:34;;;;;;;1.08;0.60;;;;;;;40.40;33.83;102428.84;5076450;28;20073;-71
2022/08/11 09:08:01;;;;;;;0.68;0.40;;;;;;;39.80;36.14;102418.06;5078400;28;20308;-71
2022/08/11 09:10:29;;;;;;;0.73;0.45;;;;;;;40.96;33.71;102420.16;5074214;28;20463;-71
2022/08/11 09:12:56;;;;;;;2.10;0.70;;;;;;;38.43;35.79;102423.22;5074727;28;20012;-71
2022/08/11 09:15:23;;;;;;;1.30;0.88;;;;;;;39.55;36.23;102427.75;5072665;28;20032;-71
2022/08/11 09:17:52;;;;;;;1.73;0.70;;;;;;;39.69;35.81;102425.78;5072053;28;20527;-71
2022/08/11 09:20:19;;;;;;;;;;;;;;;40.71;35.06;102422.53;5069666;28;20036;-71
2022/08/11 09:28:17;;;;;;;1.55;0.60;;;;;;;41.92;32.97;102426.72;5072732;28;20119;-71
2022/08/11 09:30:46;;;;;;;1.42;0.75;;;;;;;42.27;32.08;102426.72;5076638;28;20423;-71
2022/08/11 09:33:15;;;;;;;0.85;0.55;;;;;;;42.72;31.31;102431.84;5072499;28;20487;-71
2022/08/11 09:35:45;;;;;;;1.00;0.68;;;;;;;42.89;31.44;102437.34;5077756;28;20115;-71
2022/08/11 09:41:01;;;;;;;0.77;0.50;;;;;;;43.09;30.97;102423.88;5075880;28;20368;-71
2022/08/11 09:46:12;;;;;;;1.30;0.57;;;;;;;40.88;32.51;102416.25;5074686;28;20598;-71
2022/08/11 09:48:41;;;;;;;2.25;0.63;;;;;;;40.73;32.43;102411.13;5070525;28;20474;-72
2022/08/11 09:51:07;;;;;;;1.88;0.77;;;;;;;40.41;31.85;102424.91;5079135;28;20121;-72
2022/08/11 09:53:37;;;;;;;0.88;0.50;;;;;;;41.52;31.62;102419.34;5076646;28;20032;-72
2022/08/11 09:58:59;;;;;;;0.85;0.50;;;;;;;43.51;29.36;102418.38;5073272;28;20108;-71
2022/08/11 10:01:30;;;;;;;1.73;0.60;;;;;;;42.80;28.80;102411.56;5073022;28;20028;-71
2022/08/11 10:04:02;;;;;;;1.10;0.50;;;;;;;42.39;29.86;102407.44;5073625;28;20024;-71
2022/08/11 10:09:19;;;;;;;0.90;0.50;;;;;;;39.54;30.25;102407.59;5072068;28;20515;-71
2022/08/11 10:11:46;;;;;;;0.68;0.40;;;;;;;41.01;29.53;102408.97;5072798;28;20418;-71
2022/08/11 10:17:02;;;;;;;0.73;0.50;;;;;;;41.46;29.23;102408.75;5072317;28;20039;-71
2022/08/11 10:19:32;;;;;;;2.38;0.40;;;;;;;43.35;27.67;102405.09;5073270;28;20573;-71
2022/08/11 10:27:31;;;;;;;0.90;0.47;;;;;;;43.34;27.77;102402.66;5074550;28;20042;-71
2022/08/11 10:35:30;;;;;;;0.93;0.50;;;;;;;41.56;27.98;102389.03;5074017;28;20039;-71
2022/08/11 10:37:57;;;;;;;1.17;0.50;;;;;;;43.29;28.00;102389.78;5076433;28;20024;-72
2022/08/11 10:40:23;;;;;;;1.33;0.73;;;;;;;41.02;27.47;102388.44;5074598;28;20486;-71
2022/08/11 10:43:01;;;;;;;1.75;0.70;;;;;;;39.63;29.21;102385.56;5072299;28;20088;-71
2022/08/11 10:48:20;;;;;;;1.13;0.50;;;;;;;37.10;30.75;102381.00;5075055;28;20071;-71
2022/08/11 10:59:07;;;;;;;1.13;0.60;;;;;;;40.65;29.56;102368.41;5072025;28;20429;-71
2022/08/11 11:01:37;;;;;;;2.17;0.70;;;;;;;39.53;30.33;102360.97;5071832;28;20053;-71
2022/08/11 11:04:16;;;;;;;;;;;;;;;39.08;31.33;102369.91;5083300;28;20032;-71
2022/08/11 11:07:23;;;;;;;0.85;0.60;;;;;;;39.06;30.13;102366.63;5077916;28;19912;-71
2022/08/11 11:10:00;;;;;;;3.45;0.80;;;;;;;40.95;28.42;102360.41;5072608;28;20035;-71
2022/08/11 11:18:17;;;;;;;0.85;0.40;;;;;;;38.92;29.77;102340.97;5071962;28;20446;-71
2022/08/11 11:20:57;;;;;;;0.80;0.50;;;;;;;41.75;29.21;102355.50;5073308;28;20447;-71
2022/08/11 11:23:35;;;;;;;2.45;0.75;;;;;;;43.04;27.63;102352.66;5072955;28;20463;-71
2022/08/11 11:26:29;;;;;;;0.73;0.50;;;;;;;41.85;28.81;102354.34;5072392;28;20020;-71
2022/08/11 11:29:19;;;;;;;1.30;0.57;;;;;;;42.46;27.40;102357.81;5068706;28;20024;-71
2022/08/11 11:31:51;;;;;;;;;;;;;;;42.40;27.65;102359.13;5073150;28;20109;-71
2022/08/11 11:34:52;;;;;;;1.05;0.60;;;;;;;43.60;27.09;102348.81;5074717;28;19908;-71
2022/08/11 11:37:18;;;;;;;1.02;0.57;;;;;;;43.26;27.84;102348.78;5067565;28;20059;-71
2022/08/11 11:39:44;;;;;;;0.80;0.50;;;;;;;40.98;29.74;102357.00;5074748;28;20020;-71
2022/08/11 11:42:10;;;;;;;1.10;0.68;;;;;;;42.48;30.17;102361.06;5069477;28;20031;-71
2022/08/11 11:44:43;;;;;;;0.60;0.40;;;;;;;42.46;28.52;102351.47;5074233;28;20028;-71
2022/08/11 11:47:11;;;;;;;1.60;0.50;;;;;;;42.59;27.34;102349.63;5072808;28;20496;-71
2022/08/11 11:49:39;;;;;;;0.82;0.40;;;;;;;43.07;28.47;102340.06;5072594;28;20039;-72
2022/08/11 11:52:06;;;;;;;1.92;0.55;;;;;;;44.01;27.31;102347.94;5075017;28;20028;-71
2022/08/11 11:54:35;;;;;;;3.08;0.52;;;;;;;40.00;29.15;102354.03;5072911;28;20099;-71
2022/08/11 12:02:34;;;;;;;2.22;0.68;;;;;;;42.38;28.77;102328.13;5074834;28;20063;-71
2022/08/11 12:05:00;;;;;;;1.25;0.47;;;;;;;43.00;29.62;102334.22;5072674;28;20023;-71
2022/08/11 12:10:11;;;;;;;1.17;0.70;;;;;;;42.40;28.70;102330.56;5071045;28;20411;-71
2022/08/11 12:15:21;;;;;;;1.00;0.60;;;;;;;39.86;29.55;102325.66;5075874;28;20093;-71
2022/08/11 12:17:47;;;;;;;0.77;0.50;;;;;;;40.88;29.56;102327.66;5057432;28;20527;-71
2022/08/11 12:20:19;;;;;;;0.63;0.40;;;;;;;39.66;31.60;102315.88;5074936;28;20024;-71
2022/08/11 12:28:14;;;;;;;1.05;0.60;;;;;;;41.27;28.49;102320.44;5073525;28;20447;-71
2022/08/11 12:30:40;;;;;;;0.82;0.40;;;;;;;41.27;28.16;102315.69;5084445;28;20044;-71
2022/08/11 12:33:07;;;;;;;1.02;0.60;;;;;;;41.67;29.60;102315.53;5077005;28;20025;-71
2022/08/11 12:35:34;;;;;;;1.92;0.60;;;;;;;42.22;27.78;102307.63;5075068;28;20043;-71
2022/08/11 12:38:01;;;;;;;2.15;0.55;;;;;;;40.25;28.91;102302.78;5078811;28;20538;-71
2022/08/11 12:46:02;;;;;;;1.20;0.60;;;;;;;40.82;28.49;102302.06;5077879;28;20043;-71
2022/08/11 12:54:10;;;;;;;1.10;0.65;;;;;;;39.95;31.51;102293.34;5078463;28;20089;-71
2022/08/11 13:05:02;;;;;;;1.33;0.75;;;;;;;38.34;33.51;102287.97;5079093;28;20036;-71
2022/08/11 13:07:31;;;;;;;4.95;0.73;;;;;;;39.35;31.60;102290.88;5074488;28;20024;-71
2022/08/11 13:09:58;;;;;;;1.98;0.70;;;;;;;39.27;32.27;102281.41;5076941;28;20028;-71
2022/08/11 13:15:12;;;;;;;2.08;0.70;;;;;;;39.14;32.62;102283.06;5068540;28;20032;-71
2022/08/11 13:17:39;;;;;;;1.00;0.65;;;;;;;38.43;32.35;102274.28;5084843;28;20040;-71
2022/08/11 13:20:07;;;;;;;1.65;0.73;;;;;;;36.96;33.45;102284.56;5073849;28;20506;-71
2022/08/11 13:22:35;;;;;;;1.45;0.70;;;;;;;36.38;34.62;102272.53;5079391;28;20166;-71
2022/08/11 13:25:03;;;;;;;1.88;0.65;;;;;;;37.00;35.36;102258.09;5070129;28;20036;-71
2022/08/11 13:27:29;;;;;;;1.45;0.80;;;;;;;37.41;35.67;102266.63;5081888;28;20034;-71
2022/08/11 13:32:43;;;;;;;1.05;0.60;;;;;;;37.08;37.23;102273.91;5079005;28;20500;-71
2022/08/11 13:35:13;;;;;;;2.00;0.90;;;;;;;36.97;35.86;102273.22;5076090;28;20027;-71
2022/08/11 13:37:40;;;;;;;3.15;0.68;;;;;;;37.30;35.97;102275.31;5076815;28;20054;-71
2022/08/11 13:40:07;;;;;;;2.28;0.80;;;;;;;38.15;35.17;102268.72;5072427;28;20473;-71
2022/08/11 13:42:33;;;;;;;1.08;0.60;;;;;;;38.80;34.56;102275.22;5072936;28;20129;-71
2022/08/11 13:44:59;;;;;;;0.80;0.55;;;;;;;38.48;34.50;102277.81;5081178;28;20024;-71
2022/08/11 13:47:25;;;;;;;1.17;0.60;;;;;;;37.62;34.84;102275.38;5078586;28;20053;-71
2022/08/11 13:49:51;;;;;;;1.08;0.70;;;;;;;37.05;35.53;102274.53;5077792;28;20128;-71
2022/08/11 13:52:18;;;;;;;1.55;0.60;;;;;;;37.35;35.88;102272.50;5072428;28;20095;-71
2022/08/11 13:54:46;;;;;;;4.05;0.60;;;;;;;36.98;35.49;102276.84;5072739;28;20024;-71
2022/08/11 13:57:18;;;;;;;1.75;0.60;;;;;;;36.30;36.39;102273.16;5074517;28;20039;-71
2022/08/11 13:59:45;;;;;;;4.60;0.80;;;;;;;35.23;36.53;102270.09;5073559;28;20016;-71
2022/08/11 14:02:16;;;;;;;2.50;0.70;;;;;;;34.28;37.34;102259.97;5074969;28;20031;-71
2022/08/11 14:04:54;;;;;;;2.95;0.50;;;;;;;33.68;39.18;102258.84;5073409;28;20469;-71
2022/08/11 14:07:34;;;;;;;0.98;0.50;;;;;;;33.09;39.37;102255.38;5078321;28;20028;-71
2022/08/11 14:10:00;;;;;;;0.70;0.50;;;;;;;32.92;39.69;102255.56;5074203;28;20108;-71
2022/08/11 14:15:26;;;;;;;1.88;0.68;;;;;;;32.64;39.84;102255.97;5079109;28;20500;-71
2022/08/11 14:18:02;;;;;;;1.10;0.80;;;;;;;32.74;40.84;102264.25;5070435;28;20429;-71
2022/08/11 14:22:05;;;;;;;1.23;0.52;;;;;;;32.47;40.80;102243.31;5070229;28;20020;-71
2022/08/11 14:23:25;;;;;;;1.20;0.70;;;;;;;31.44;42.56;102241.59;5069822;28;20446;-71
2022/08/11 14:28:36;;;;;;;1.40;0.60;;;;;;;31.06;42.79;102247.97;5080846;28;20459;-71
2022/08/11 14:31:03;;;;;;;2.90;0.60;;;;;;;30.72;42.15;102237.97;5081491;28;20048;-71
2022/08/11 14:33:32;;;;;;;1.05;0.45;;;;;;;30.70;43.72;102242.84;5074130;28;20024;-71
2022/08/11 14:35:57;;;;;;;2.65;0.65;;;;;;;31.08;43.99;102234.91;5071402;28;20204;-71
2022/08/11 14:38:23;;;;;;;0.75;0.50;;;;;;;30.71;44.23;102238.22;5079200;28;20486;-71
2022/08/11 14:49:02;;;;;;;2.20;0.70;;;;;;;30.37;44.41;102232.84;5075215;28;20039;-71
2022/08/11 14:51:27;;;;;;;0.98;0.50;;;;;;;30.18;44.76;102224.06;5066904;28;20032;-71
2022/08/11 14:56:34;;;;;;;1.33;0.60;;;;;;;30.06;46.48;102215.19;5074270;28;20028;-71
2022/08/11 14:56:39;;;;;;;1.02;0.60;;;;;;;29.97;45.25;102233.81;5073776;28;20502;-71
2022/08/11 14:59:06;;;;;;;1.10;0.65;;;;;;;30.00;47.07;102221.63;5078683;28;20048;-71
2022/08/11 15:04:18;;;;;;;1.20;0.90;;;;;;;30.21;46.80;102212.69;5067341;28;20035;-71
2022/08/11 15:06:44;;;;;;;1.10;0.65;;;;;;;30.19;45.87;102214.03;5078015;28;20024;-71
2022/08/11 15:09:10;;;;;;;0.90;0.70;;;;;;;30.15;47.30;102219.13;5074566;28;20086;-71
2022/08/11 15:17:07;;;;;;;0.82;0.52;;;;;;;30.04;47.28;102209.16;5078117;28;20038;-71
2022/08/11 15:19:35;;;;;;;1.35;0.70;;;;;;;30.06;46.20;102209.75;5066802;28;20392;-71
2022/08/11 15:24:45;;;;;;;2.15;0.82;;;;;;;29.78;47.19;102202.47;5072931;28;20079;-71
2022/08/11 15:38:18;;;;;;;2.42;0.98;;;;;;;29.35;48.31;102172.03;5071279;28;20043;-71
2022/08/11 15:46:34;;;;;;;1.65;1.08;;;;;;;29.60;48.87;102170.88;5074970;28;20118;-71
2022/08/11 15:49:22;;;;;;;0.82;0.52;;;;;;;29.52;49.14;102172.91;5075860;28;20115;-71
2022/08/11 15:52:09;;;;;;;2.53;0.63;;;;;;;29.46;49.97;102167.59;5068332;28;20033;-71
2022/08/11 15:54:42;;;;;;;1.58;0.70;;;;;;;29.36;50.10;102172.88;5068558;28;20019;-71
2022/08/11 16:04:09;;;;;;;5.30;1.05;;;;;;;29.42;50.06;102161.84;5083163;28;20153;-72
2022/08/11 16:05:16;;;;;;;5.05;0.90;;;;;;;29.20;49.90;102164.44;5071690;28;20039;-72
2022/08/11 16:07:47;;;;;;;1.55;0.73;;;;;;;29.19;51.20;102161.97;5075768;28;20016;-71
2022/08/11 16:10:20;;;;;;;2.67;0.85;;;;;;;29.17;51.00;102156.75;5078990;28;20064;-71
2022/08/11 16:18:41;;;;;;;1.75;1.00;;;;;;;28.70;52.77;102159.59;5067677;28;20078;-71
2022/08/11 16:21:14;;;;;;;1.30;0.90;;;;;;;28.85;51.61;102159.09;5078056;28;20559;-71
2022/08/11 16:23:43;;;;;;;1.50;0.80;;;;;;;28.85;52.22;102151.78;5069843;28;20024;-72
2022/08/11 16:26:11;;;;;;;0.98;0.85;;;;;;;28.88;51.82;102147.75;5081395;28;20024;-72
2022/08/11 16:28:39;;;;;;;1.40;0.70;;;;;;;28.68;52.14;102153.63;5079686;28;20060;-71
2022/08/11 16:31:09;;;;;;;1.52;0.70;;;;;;;28.68;52.54;102145.47;5083346;28;20041;-71
2022/08/11 16:33:39;;;;;;;3.33;0.90;;;;;;;28.48;52.90;102129.53;5073547;28;20039;-71
2022/08/11 16:38:51;;;;;;;2.05;0.80;;;;;;;28.54;53.27;102150.31;5067919;28;20054;-72
2022/08/11 16:46:58;;;;;;;1.15;0.60;;;;;;;28.48;53.23;102146.69;5073866;28;20029;-71
2022/08/11 16:46:58;;;;;;;1.00;0.70;;;;;;;27.92;53.80;102118.25;5072058;28;20039;-72
2022/08/11 16:49:32;;;;;;;0.77;0.50;;;;;;;28.20;54.25;102135.69;5080815;28;20490;-72